Time;durP1;ratioP1;P1;durP2;ratioP2;P2;SDS_P1;SDS_P2;PMS_P1;PMS_P2;Temp;Humidity;BMP_temperature;BMP_pressure;BME280_temperature;BME280_humidity;BME280_pressure;Samples;Min_cycle;Max_cycle;Signal;HPM_P1;HPM_P2
2021/11/12 00:14:44;;;;;;;1059.68;980.33;;;;;;;20.55;52.42;102029.75;5055684;28;20032;-42
2021/11/12 00:17:11;;;;;;;1081.95;997.38;;;;;;;20.53;52.37;102031.72;5053742;28;20067;-41
2021/11/12 00:19:37;;;;;;;1079.38;996.28;;;;;;;20.55;52.40;102034.25;5055129;28;20497;-41
2021/11/12 00:22:04;;;;;;;1073.47;992.85;;;;;;;20.55;52.42;102028.91;5054865;28;20112;-41
2021/11/12 00:24:30;;;;;;;1074.35;992.33;;;;;;;20.54;52.63;102025.41;5054851;28;20053;-42
2021/11/12 00:26:56;;;;;;;1078.80;996.95;;;;;;;20.49;52.73;102022.28;5054631;28;20104;-41
2021/11/12 00:29:23;;;;;;;1081.75;996.42;;;;;;;20.54;52.96;102027.22;5055112;28;20401;-42
2021/11/12 00:32:02;;;;;;;1108.40;999.90;;;;;;;20.50;52.61;102030.16;5054869;28;20461;-41
2021/11/12 00:40:04;;;;;;;1064.90;986.90;;;;;;;20.55;52.59;102024.41;5046560;28;20033;-42
2021/11/12 00:42:40;;;;;;;1046.45;969.97;;;;;;;20.51;52.62;102021.16;5054906;28;20036;-42
2021/11/12 00:45:07;;;;;;;1067.32;987.63;;;;;;;20.54;52.35;102022.75;5054906;28;20028;-41
2021/11/12 00:47:45;;;;;;;1074.97;993.70;;;;;;;20.54;52.95;102021.88;5053619;28;20051;-41
2021/11/12 00:50:29;;;;;;;1084.45;997.40;;;;;;;20.54;52.87;102024.53;5054776;28;20035;-42
2021/11/12 00:55:23;;;;;;;1080.28;995.03;;;;;;;20.52;52.67;102014.03;5054684;28;20020;-41
2021/11/12 00:57:50;;;;;;;1088.57;998.17;;;;;;;20.54;52.87;102016.53;5054499;28;20032;-41
2021/11/12 01:00:16;;;;;;;1082.38;996.45;;;;;;;20.53;52.68;102026.38;5054668;28;20399;-41
2021/11/12 01:02:43;;;;;;;1083.95;997.38;;;;;;;20.51;52.62;102025.66;5054486;28;20528;-41
2021/11/12 01:05:09;;;;;;;1101.75;999.90;;;;;;;20.49;53.00;102020.44;5054030;28;20020;-42
2021/11/12 01:07:36;;;;;;;1105.18;999.90;;;;;;;20.48;52.85;102018.75;5054130;28;20098;-42
2021/11/12 01:10:03;;;;;;;1077.72;994.97;;;;;;;20.49;52.69;102025.78;5053478;28;20052;-41
2021/11/12 01:12:29;;;;;;;1081.40;997.30;;;;;;;20.50;52.75;102029.28;5054601;28;20108;-41
2021/11/12 01:14:56;;;;;;;1077.53;993.47;;;;;;;20.52;52.87;102033.53;5054423;28;20442;-41
2021/11/12 01:17:23;;;;;;;1085.63;998.50;;;;;;;20.51;52.90;102036.34;5054308;28;20082;-41
2021/11/12 01:19:49;;;;;;;1093.88;999.90;;;;;;;20.50;52.38;102037.28;5054622;28;20093;-41
2021/11/12 01:22:15;;;;;;;1081.40;996.28;;;;;;;20.50;52.52;102035.50;5054562;28;20095;-41
2021/11/12 01:24:43;;;;;;;1093.95;999.90;;;;;;;20.50;52.85;102042.63;5054104;28;20043;-41
2021/11/12 01:27:09;;;;;;;1081.32;995.40;;;;;;;20.48;52.64;102041.91;5054007;28;20336;-41
2021/11/12 01:29:35;;;;;;;1079.00;995.47;;;;;;;20.48;52.37;102033.91;5054219;28;20032;-41
2021/11/12 01:34:48;;;;;;;1064.03;983.63;;;;;;;20.47;52.50;102054.41;5055873;28;20032;-41
2021/11/12 01:37:19;;;;;;;1069.15;987.67;;;;;;;20.45;52.51;102044.84;5056303;28;20450;-41
2021/11/12 01:40:00;;;;;;;1075.88;992.22;;;;;;;20.49;52.73;102051.63;5052029;28;20033;-41
2021/11/12 01:42:28;;;;;;;986.22;914.35;;;;;;;20.11;52.28;102050.19;5056839;28;20025;-40
2021/11/12 01:45:04;;;;;;;988.85;914.42;;;;;;;19.93;51.85;102056.03;5058107;28;20037;-40
2021/11/12 01:47:40;;;;;;;1035.35;956.92;;;;;;;19.85;52.09;102057.59;5069040;28;20108;-41
2021/11/12 01:50:10;;;;;;;1044.70;966.53;;;;;;;19.74;52.13;102063.78;5054620;28;20405;-41
2021/11/12 01:52:41;;;;;;;1093.28;983.13;;;;;;;19.66;52.72;102066.97;5057707;28;20025;-41
2021/11/12 01:55:17;;;;;;;996.65;923.10;;;;;;;19.63;52.53;102064.56;5054992;28;20028;-42
2021/11/12 02:00:11;;;;;;;1019.53;939.05;;;;;;;19.50;52.45;102069.13;5056370;28;20056;-40
2021/11/12 02:02:38;;;;;;;1024.13;947.65;;;;;;;19.36;52.75;102051.53;5054389;28;20478;-41
2021/11/12 02:05:05;;;;;;;1028.63;953.88;;;;;;;19.38;52.93;102069.13;5057090;28;20025;-40
2021/11/12 02:07:35;;;;;;;981.85;911.33;;;;;;;19.29;52.81;102066.28;5055888;28;20083;-40
2021/11/12 02:10:07;;;;;;;1010.70;939.22;;;;;;;19.29;53.04;102063.63;5055582;28;20080;-40
2021/11/12 02:12:43;;;;;;;995.47;923.70;;;;;;;19.23;53.24;102062.28;5056309;28;20040;-40
2021/11/12 02:15:09;;;;;;;1041.50;966.35;;;;;;;19.17;53.08;102063.59;5057120;28;20021;-40
2021/11/12 02:17:38;;;;;;;1020.25;947.35;;;;;;;19.34;53.08;102064.97;5053341;28;20546;-40
2021/11/12 02:22:38;;;;;;;1008.50;938.60;;;;;;;19.63;51.87;102069.91;5056250;28;20114;-40
2021/11/12 02:25:29;;;;;;;992.53;922.22;;;;;;;19.66;52.04;102064.31;5054941;28;20021;-41
2021/11/12 02:28:01;;;;;;;1010.58;939.70;;;;;;;19.74;51.87;102064.63;5056981;28;20060;-41
2021/11/12 02:30:34;;;;;;;1020.38;946.85;;;;;;;19.82;52.27;102071.16;5055434;28;20024;-40
2021/11/12 02:33:00;;;;;;;1026.57;952.80;;;;;;;19.85;52.04;102074.44;5056586;28;20361;-40
2021/11/12 02:35:27;;;;;;;1027.28;954.30;;;;;;;19.88;52.00;102062.66;5055568;28;20032;-41
2021/11/12 02:37:53;;;;;;;1035.38;960.80;;;;;;;19.91;51.90;102068.63;5055880;28;20021;-40
2021/11/12 02:40:19;;;;;;;1043.38;968.35;;;;;;;19.93;51.76;102068.50;5039274;28;20110;-40
2021/11/12 02:42:46;;;;;;;1054.47;977.25;;;;;;;19.94;52.04;102075.53;5055095;28;20025;-41
2021/11/12 02:45:12;;;;;;;1042.57;967.63;;;;;;;19.95;51.87;102066.59;5056596;28;20108;-40
2021/11/12 02:47:38;;;;;;;1048.20;971.05;;;;;;;19.96;51.80;102070.94;5055956;28;20025;-40
2021/11/12 02:50:05;;;;;;;1040.57;965.08;;;;;;;19.97;51.83;102066.44;5055821;28;20029;-40
2021/11/12 02:52:32;;;;;;;1035.22;959.78;;;;;;;19.97;51.74;102069.09;5056803;28;20060;-40
2021/11/12 02:54:58;;;;;;;1045.10;969.03;;;;;;;19.95;52.18;102071.91;5055330;28;20119;-41
2021/11/12 02:57:29;;;;;;;1051.88;975.58;;;;;;;19.97;52.16;102069.97;5056154;28;20032;-40
2021/11/12 02:59:58;;;;;;;1037.53;962.13;;;;;;;19.98;52.13;102066.31;5055370;28;20348;-41
2021/11/12 03:02:25;;;;;;;1046.78;971.67;;;;;;;19.99;52.15;102068.03;5054351;28;20107;-41
2021/11/12 03:04:51;;;;;;;1032.03;957.58;;;;;;;19.99;51.95;102072.53;5045405;28;20029;-40
2021/11/12 03:07:17;;;;;;;1056.70;979.80;;;;;;;19.97;52.12;102067.31;5046962;28;20029;-40
2021/11/12 03:09:43;;;;;;;1040.45;965.15;;;;;;;19.93;52.09;102064.03;5054606;28;20060;-40
2021/11/12 03:12:09;;;;;;;1026.28;952.80;;;;;;;19.94;52.15;102064.88;5054287;28;20033;-40
2021/11/12 03:14:36;;;;;;;1033.75;958.90;;;;;;;19.91;52.47;102068.63;5056034;28;20029;-40
2021/11/12 03:17:02;;;;;;;1046.63;970.42;;;;;;;19.90;52.21;102066.94;5056260;28;20027;-40
2021/11/12 03:19:29;;;;;;;1042.60;967.10;;;;;;;19.91;52.10;102070.44;5055374;28;20094;-40
2021/11/12 03:22:07;;;;;;;1020.40;946.00;;;;;;;19.95;52.18;102071.91;5054417;28;20111;-40
2021/11/12 03:24:37;;;;;;;1034.88;961.35;;;;;;;20.00;51.85;102069.72;5055232;28;20036;-41
2021/11/12 03:27:25;;;;;;;1039.93;964.95;;;;;;;19.99;51.91;102064.53;5054891;28;20020;-40
2021/11/12 04:06:18;;;;;;;1001.90;931.95;;;;;;;19.97;52.46;102093.97;4988914;28;20035;-40
2021/11/12 05:13:56;;;;;;;1006.75;934.80;;;;;;;19.78;52.05;102153.19;5053361;28;20032;-40
2021/11/12 05:43:55;;;;;;;1001.60;932.60;;;;;;;19.70;52.55;102142.22;5053499;28;20027;-39
2021/11/12 05:57:09;;;;;;;1006.20;935.05;;;;;;;19.69;52.10;102149.38;5044599;28;20081;-40
2021/11/12 05:59:35;;;;;;;1025.80;953.15;;;;;;;19.68;52.37;102154.81;5054042;28;20351;-40
2021/11/12 06:02:04;;;;;;;1008.65;937.92;;;;;;;19.65;52.28;102153.25;5053052;28;20158;-39
2021/11/12 06:04:30;;;;;;;1014.80;943.38;;;;;;;19.64;51.91;102150.69;5053393;28;20107;-40
2021/11/12 06:06:56;;;;;;;1014.85;942.75;;;;;;;19.65;51.97;102153.25;5052764;28;20475;-40
2021/11/12 06:09:23;;;;;;;1016.35;943.58;;;;;;;19.61;52.31;102149.09;5051539;28;20059;-40
2021/11/12 06:11:53;;;;;;;1004.50;933.08;;;;;;;19.55;52.13;102146.91;5052996;28;20064;-40
2021/11/12 06:14:21;;;;;;;1034.90;961.08;;;;;;;19.60;52.12;102150.06;5052949;28;20114;-39
2021/11/12 06:16:47;;;;;;;1030.45;958.95;;;;;;;19.64;51.91;102150.69;5054074;28;20471;-39
2021/11/12 06:19:15;;;;;;;1038.28;964.72;;;;;;;19.63;52.03;102149.84;5053720;28;20039;-39
2021/11/12 06:21:41;;;;;;;1028.35;954.83;;;;;;;19.64;51.91;102151.53;5056444;28;20044;-40
2021/11/12 06:24:07;;;;;;;1002.35;931.47;;;;;;;19.61;52.34;102151.75;5056887;28;20021;-40
2021/11/12 06:26:33;;;;;;;1013.83;941.67;;;;;;;19.60;51.95;102158.06;5055616;28;20509;-39
2021/11/12 06:29:00;;;;;;;1033.18;960.25;;;;;;;19.58;52.11;102160.00;5057304;28;20059;-39
2021/11/12 06:31:26;;;;;;;999.80;929.67;;;;;;;19.57;52.04;102147.63;5059259;28;20033;-40
2021/11/12 06:33:54;;;;;;;1008.35;937.92;;;;;;;19.57;51.99;102150.28;5055272;28;20342;-40
2021/11/12 06:36:21;;;;;;;1003.45;933.05;;;;;;;19.56;52.27;102153.94;5057152;28;20036;-39
2021/11/12 06:38:48;;;;;;;1013.30;943.08;;;;;;;19.54;52.06;102155.84;5057261;28;20059;-40
2021/11/12 06:41:16;;;;;;;991.90;922.85;;;;;;;19.54;52.43;102162.06;5056912;28;20017;-39
2021/11/12 06:49:29;;;;;;;1007.67;937.80;;;;;;;19.55;52.35;102158.41;5026041;28;20102;-40
2021/11/12 06:51:56;;;;;;;1021.63;949.47;;;;;;;19.52;52.07;102153.31;5050849;28;20036;-39
2021/11/12 06:54:22;;;;;;;1018.22;946.15;;;;;;;19.51;52.16;102162.28;5072712;28;20044;-39
2021/11/12 06:56:48;;;;;;;1011.78;939.90;;;;;;;19.41;52.05;102141.75;5056868;28;20032;-40
2021/11/12 06:59:15;;;;;;;1013.47;942.60;;;;;;;19.50;51.96;102159.72;5055986;28;20370;-39
2021/11/12 07:01:41;;;;;;;1010.30;939.15;;;;;;;19.49;52.37;102158.88;5056771;28;20036;-39
2021/11/12 07:04:07;;;;;;;999.63;930.00;;;;;;;19.46;52.29;102159.09;5056353;28;20029;-40
2021/11/12 07:06:36;;;;;;;1005.47;934.65;;;;;;;19.47;52.08;102157.28;5056730;28;20146;-39
2021/11/12 07:09:06;;;;;;;1012.78;943.10;;;;;;;19.46;52.24;102164.44;5056377;28;20216;-39
2021/11/12 07:11:32;;;;;;;1015.88;943.92;;;;;;;19.47;51.79;102160.81;5055995;28;20455;-39
2021/11/12 07:13:59;;;;;;;1026.07;954.05;;;;;;;19.48;51.93;102164.31;5056379;28;20462;-40
2021/11/12 07:16:25;;;;;;;1005.88;936.05;;;;;;;19.48;52.42;102166.97;5055908;28;20028;-40
2021/11/12 07:18:54;;;;;;;999.22;931.45;;;;;;;19.44;52.02;102165.53;5055065;28;20366;-39
2021/11/12 07:21:24;;;;;;;992.85;924.42;;;;;;;19.41;52.21;102163.06;5055353;28;20036;-39
2021/11/12 07:23:50;;;;;;;1008.67;939.47;;;;;;;19.44;52.19;102165.53;5055236;28;20085;-39
2021/11/12 07:26:17;;;;;;;1041.07;968.50;;;;;;;19.40;51.98;102164.03;5054899;28;20447;-39
2021/11/12 07:28:45;;;;;;;1009.05;939.35;;;;;;;19.41;52.01;102166.59;5055575;28;20040;-40
2021/11/12 07:31:11;;;;;;;986.63;917.72;;;;;;;19.41;52.32;102168.41;5055052;28;20032;-40
2021/11/12 07:33:38;;;;;;;1023.30;951.72;;;;;;;19.43;52.31;102166.47;5053932;28;20036;-40
2021/11/12 07:36:34;;;;;;;998.47;929.88;;;;;;;19.40;51.74;102167.56;5055993;28;20435;-39
2021/11/12 07:39:16;;;;;;;1005.55;936.20;;;;;;;19.42;51.70;102170.09;5055105;28;20049;-39
2021/11/12 07:41:55;;;;;;;989.85;922.78;;;;;;;19.43;52.03;102171.78;5044812;28;20111;-40
2021/11/12 07:44:35;;;;;;;1014.00;944.42;;;;;;;19.42;51.89;102172.75;5055526;28;20037;-39
2021/11/12 07:47:17;;;;;;;986.10;918.35;;;;;;;19.38;51.96;102170.34;5055173;28;20386;-39
2021/11/12 07:49:48;;;;;;;975.67;908.00;;;;;;;19.35;51.98;102173.22;5055514;28;20047;-39
2021/11/12 07:52:16;;;;;;;996.23;927.40;;;;;;;19.26;52.13;102157.94;5055389;28;20048;-39
2021/11/12 07:54:43;;;;;;;1031.75;959.50;;;;;;;19.32;51.95;102162.78;5054656;28;20029;-39
2021/11/12 07:57:09;;;;;;;994.38;925.25;;;;;;;19.31;52.03;102166.44;5055601;28;20332;-39
2021/11/12 07:59:36;;;;;;;1020.10;947.67;;;;;;;19.30;52.26;102164.72;5052507;28;20025;-39
2021/11/12 08:02:03;;;;;;;1001.38;931.63;;;;;;;19.30;52.03;102164.72;5061766;28;20115;-39
2021/11/12 08:04:30;;;;;;;1000.35;930.38;;;;;;;19.30;52.25;102167.38;5053182;28;20098;-39
2021/11/12 08:06:58;;;;;;;1010.53;940.67;;;;;;;19.31;51.81;102171.75;5052505;28;20102;-39
2021/11/12 08:09:30;;;;;;;999.55;930.65;;;;;;;19.35;52.01;102172.38;5054194;28;20355;-39
2021/11/12 08:12:01;;;;;;;999.10;929.33;;;;;;;19.33;52.00;102164.50;5046794;28;20113;-39
2021/11/12 08:17:15;;;;;;;989.83;921.28;;;;;;;19.28;51.91;102174.63;5054926;28;20032;-39
2021/11/12 08:30:17;;;;;;;1006.28;937.13;;;;;;;19.22;52.03;102172.41;5054568;28;20028;-39
2021/11/12 08:35:28;;;;;;;978.00;911.58;;;;;;;19.25;51.78;102172.19;5054402;28;20033;-40
2021/11/12 08:45:39;;;;;;;1012.75;942.75;;;;;;;19.19;51.89;102162.84;5043193;28;20052;-39
2021/11/12 08:48:12;;;;;;;992.42;923.75;;;;;;;19.15;52.03;102161.38;5054483;28;20037;-40
2021/11/12 08:50:38;;;;;;;993.88;925.25;;;;;;;19.16;51.98;102160.41;5054239;28;20478;-39
2021/11/12 08:53:10;;;;;;;1015.83;945.30;;;;;;;19.16;51.96;102162.22;5069882;28;20108;-39
2021/11/12 08:55:37;;;;;;;1007.10;938.45;;;;;;;19.11;51.94;102159.03;5053986;28;20115;-39
2021/11/12 08:58:05;;;;;;;998.13;930.17;;;;;;;19.12;52.20;102148.28;5054268;28;20025;-39
2021/11/12 09:00:31;;;;;;;1005.25;936.58;;;;;;;19.15;52.18;102150.72;5052364;28;20107;-40
2021/11/12 09:02:58;;;;;;;978.97;913.15;;;;;;;19.15;51.84;102149.84;5054224;28;20818;-39
2021/11/12 09:05:25;;;;;;;980.08;912.80;;;;;;;19.14;51.65;102149.03;5053156;28;20469;-39
2021/11/12 09:07:51;;;;;;;1010.00;941.08;;;;;;;19.15;51.86;102149.84;5054374;28;20030;-39
2021/11/12 09:10:19;;;;;;;989.47;921.35;;;;;;;19.03;52.15;102134.78;5036912;28;20049;-39
2021/11/12 09:12:49;;;;;;;1008.13;937.88;;;;;;;18.75;51.92;102099.53;5054287;28;20359;-39
2021/11/12 09:15:26;;;;;;;999.72;930.83;;;;;;;19.09;51.95;102159.16;5054097;28;20021;-40
2021/11/12 09:17:53;;;;;;;990.00;922.28;;;;;;;19.09;51.84;102150.31;5040701;28;20114;-39
2021/11/12 09:20:19;;;;;;;1007.40;937.70;;;;;;;19.04;52.12;102144.47;5043075;28;20028;-39
2021/11/12 09:22:46;;;;;;;1005.92;936.45;;;;;;;18.94;51.97;102142.50;5069880;28;20024;-39
2021/11/12 09:25:12;;;;;;;1014.92;945.28;;;;;;;19.06;52.18;102151.41;5052347;28;20033;-39
2021/11/12 09:27:38;;;;;;;986.13;918.85;;;;;;;19.07;52.14;102163.75;5054220;28;20472;-40
2021/11/12 09:30:08;;;;;;;994.05;926.20;;;;;;;19.08;52.23;102159.25;5053892;28;20463;-39
2021/11/12 09:32:35;;;;;;;986.92;919.42;;;;;;;19.11;51.89;102167.03;5054119;28;20071;-39
2021/11/12 09:35:02;;;;;;;987.30;918.95;;;;;;;19.08;51.63;102164.59;5043855;28;20021;-39
2021/11/12 09:37:28;;;;;;;999.85;931.25;;;;;;;19.05;51.68;102159.50;5052422;28;20033;-39
2021/11/12 09:39:57;;;;;;;983.28;915.67;;;;;;;19.02;51.99;102170.38;5053439;28;20519;-39
2021/11/12 09:42:31;;;;;;;999.70;930.90;;;;;;;19.02;52.33;102159.72;5053647;28;20025;-39
2021/11/12 09:44:58;;;;;;;993.83;924.83;;;;;;;19.02;52.22;102160.56;5053646;28;20119;-39
2021/11/12 09:47:27;;;;;;;1004.20;934.60;;;;;;;18.99;52.25;102151.00;5054095;28;20017;-39
2021/11/12 09:49:55;;;;;;;1006.63;937.78;;;;;;;18.98;52.24;102167.94;5053694;28;20036;-39
2021/11/12 09:52:24;;;;;;;988.70;921.22;;;;;;;18.79;52.16;102138.25;5053142;28;20033;-39
2021/11/12 09:54:51;;;;;;;1002.25;934.58;;;;;;;18.98;52.02;102167.94;5069070;28;20025;-40
2021/11/12 09:57:17;;;;;;;991.22;922.05;;;;;;;19.00;51.76;102168.66;5056648;28;20493;-39
2021/11/12 09:59:49;;;;;;;974.17;907.95;;;;;;;19.00;52.00;102166.00;5053019;28;20049;-39
2021/11/12 10:02:16;;;;;;;985.20;918.28;;;;;;;19.02;52.00;102165.88;5049121;28;20036;-39
2021/11/12 10:04:43;;;;;;;981.03;913.67;;;;;;;18.97;52.14;102163.59;5057052;28;20377;-39
2021/11/12 10:07:11;;;;;;;991.53;923.05;;;;;;;18.95;51.98;102170.81;5056713;28;20119;-39
2021/11/12 10:09:38;;;;;;;991.72;923.63;;;;;;;18.94;52.27;102166.47;5057099;28;20029;-39
2021/11/12 10:12:05;;;;;;;988.42;921.63;;;;;;;18.95;52.32;102175.28;5056317;28;20441;-39
2021/11/12 10:17:12;;;;;;;985.42;918.00;;;;;;;18.89;52.28;102170.44;5040931;28;20037;-39
2021/11/12 10:19:49;;;;;;;989.75;922.17;;;;;;;18.90;52.43;102169.44;5056382;28;20038;-39
2021/11/12 10:22:16;;;;;;;981.17;915.33;;;;;;;18.90;52.33;102170.31;5057204;28;20106;-39
2021/11/12 10:24:43;;;;;;;989.97;922.50;;;;;;;18.90;52.02;102159.66;5053135;28;20029;-40
2021/11/12 10:27:15;;;;;;;983.83;917.17;;;;;;;18.85;51.87;102153.81;5047894;28;20103;-39
2021/11/12 10:29:46;;;;;;;968.88;902.60;;;;;;;18.93;51.69;102163.91;5072615;28;20473;-40
2021/11/12 10:32:15;;;;;;;974.33;909.67;;;;;;;18.90;51.88;102167.66;5057355;28;20051;-39
2021/11/12 10:34:42;;;;;;;990.28;923.35;;;;;;;18.88;52.17;102166.88;5056686;28;20293;-39
2021/11/12 10:37:19;;;;;;;994.97;927.15;;;;;;;18.86;51.86;102160.81;5055935;28;20474;-39
2021/11/12 10:39:49;;;;;;;990.55;923.72;;;;;;;18.83;52.14;102161.03;5055465;28;20043;-39
2021/11/12 10:42:27;;;;;;;990.63;922.83;;;;;;;18.83;52.45;102170.84;5056097;28;20029;-39
2021/11/12 10:44:57;;;;;;;975.40;909.55;;;;;;;18.78;52.13;102166.69;5055257;28;20055;-39
2021/11/12 10:47:24;;;;;;;992.55;925.33;;;;;;;18.75;52.41;102152.75;5056763;28;20339;-39
2021/11/12 10:49:51;;;;;;;975.38;909.03;;;;;;;18.80;52.00;102156.78;5056867;28;20024;-39
2021/11/12 10:52:22;;;;;;;970.58;904.53;;;;;;;18.82;52.30;102162.03;5056573;28;20075;-39
2021/11/12 10:54:56;;;;;;;962.40;897.70;;;;;;;18.85;52.07;102158.28;5056580;28;20024;-39
2021/11/12 10:57:33;;;;;;;974.05;908.85;;;;;;;18.84;51.98;102162.75;5055464;28;20112;-39
2021/11/12 11:00:04;;;;;;;984.10;917.50;;;;;;;18.81;52.03;102160.28;5055599;28;20025;-40
2021/11/12 11:02:40;;;;;;;954.60;890.40;;;;;;;18.73;52.38;102147.53;5055752;28;20116;-40
2021/11/12 11:05:21;;;;;;;973.13;907.72;;;;;;;18.73;52.13;102144.03;5056385;28;20082;-39
2021/11/12 11:08:01;;;;;;;970.33;905.33;;;;;;;18.76;52.47;102160.63;5055311;28;20025;-39
2021/11/12 11:10:38;;;;;;;967.72;903.08;;;;;;;18.76;52.20;102160.63;5056012;28;20454;-39
2021/11/12 11:13:11;;;;;;;962.03;897.42;;;;;;;18.71;52.41;102156.59;5052658;28;20044;-39
2021/11/12 11:15:48;;;;;;;983.95;918.35;;;;;;;18.72;52.36;102156.47;5056328;28;20378;-39
2021/11/12 11:18:24;;;;;;;944.10;882.33;;;;;;;18.73;52.04;102160.00;5055781;28;20101;-39
2021/11/12 11:20:52;;;;;;;959.67;897.00;;;;;;;18.76;52.21;102162.41;5071287;28;20032;-39
2021/11/12 11:23:20;;;;;;;966.50;902.13;;;;;;;18.78;52.06;102164.03;5054983;28;20056;-39
2021/11/12 11:26:03;;;;;;;964.63;900.28;;;;;;;18.78;51.95;102168.50;5055786;28;20029;-39
2021/11/12 11:28:30;;;;;;;963.65;899.17;;;;;;;18.74;51.86;102167.88;5051280;28;20029;-39
2021/11/12 11:30:56;;;;;;;977.53;912.33;;;;;;;18.67;52.07;102157.75;5048280;28;20100;-39
2021/11/12 11:33:23;;;;;;;995.90;928.38;;;;;;;18.70;52.22;102161.03;5056110;28;20037;-39
2021/11/12 11:35:52;;;;;;;976.97;911.85;;;;;;;18.69;52.34;102171.78;5055964;28;20028;-39
2021/11/12 11:38:19;;;;;;;973.85;908.60;;;;;;;18.66;52.04;102161.41;5056297;28;20063;-39
2021/11/12 11:40:48;;;;;;;958.22;893.65;;;;;;;18.69;52.26;102177.13;5055386;28;20454;-39
2021/11/12 11:43:15;;;;;;;961.13;898.13;;;;;;;18.68;52.20;102170.13;5056045;28;20029;-40
2021/11/12 11:45:45;;;;;;;945.78;882.40;;;;;;;18.68;52.27;102170.97;5055484;28;20454;-40
2021/11/12 11:48:13;;;;;;;965.95;901.17;;;;;;;18.58;52.14;102159.25;5038096;28;20037;-39
2021/11/12 11:50:39;;;;;;;962.10;898.45;;;;;;;18.73;52.08;102170.63;5071384;28;20040;-39
2021/11/12 11:53:26;;;;;;;954.70;891.97;;;;;;;18.72;51.54;102177.75;5055571;28;20138;-39
2021/11/12 11:56:11;;;;;;;951.05;887.38;;;;;;;18.66;52.27;102170.22;5055222;28;20036;-39
2021/11/12 11:58:49;;;;;;;951.80;888.35;;;;;;;18.64;52.05;102180.13;5055519;28;20021;-39
2021/11/12 12:01:24;;;;;;;980.22;914.80;;;;;;;18.64;52.29;102181.94;5054306;28;20104;-39
2021/11/12 12:04:11;;;;;;;992.65;925.70;;;;;;;18.62;52.10;102176.72;5055485;28;20036;-39
2021/11/12 12:07:17;;;;;;;962.13;897.83;;;;;;;18.71;51.80;102177.88;5029647;28;20032;-39
2021/11/12 12:10:00;;;;;;;935.20;874.40;;;;;;;18.59;52.42;102180.44;4997384;28;20214;-39
2021/11/12 12:12:35;;;;;;;931.15;870.17;;;;;;;18.60;51.90;102178.63;5047625;28;20033;-39
2021/11/12 12:15:04;;;;;;;945.83;883.42;;;;;;;18.63;51.73;102186.41;5042233;28;20025;-39
2021/11/12 12:17:37;;;;;;;952.53;889.42;;;;;;;18.62;51.86;102182.06;5041464;28;20032;-39
2021/11/12 12:20:20;;;;;;;949.25;886.33;;;;;;;18.66;51.90;102183.53;5055364;28;20442;-39
2021/11/12 12:31:07;;;;;;;946.22;883.97;;;;;;;18.58;52.14;102185.88;5055077;28;20099;-39
2021/11/12 13:25:53;;;;;;;928.70;868.22;;;;;;;18.47;52.56;102183.97;5053157;28;20022;-40
2021/11/12 13:28:32;;;;;;;941.67;880.08;;;;;;;18.47;52.78;102181.31;5053402;28;20120;-39
2021/11/12 13:31:15;;;;;;;970.15;906.40;;;;;;;18.47;52.74;102183.97;5055961;28;20031;-39
2021/11/12 13:33:54;;;;;;;943.47;881.97;;;;;;;18.44;52.82;102186.88;5058349;28;20139;-39
2021/11/12 13:36:31;;;;;;;963.38;899.55;;;;;;;18.43;53.12;102190.47;5058368;28;20033;-39
2021/11/12 13:39:08;;;;;;;933.55;872.15;;;;;;;18.44;52.78;102184.19;5057183;28;20025;-39
2021/11/12 13:41:37;;;;;;;912.75;853.90;;;;;;;18.48;52.61;102183.03;5057040;28;20025;-39
2021/11/12 13:44:24;;;;;;;923.28;863.45;;;;;;;18.13;52.67;102119.84;5057569;28;20450;-39
2021/11/12 13:46:58;;;;;;;933.60;873.08;;;;;;;18.42;53.05;102176.31;5057445;28;20039;-39
2021/11/12 13:49:38;;;;;;;951.28;888.70;;;;;;;18.47;52.83;102186.63;5057552;28;20048;-39
2021/11/12 13:52:10;;;;;;;955.35;892.63;;;;;;;18.42;53.22;102178.13;5073570;28;20027;-40
2021/11/12 13:55:04;;;;;;;939.88;878.55;;;;;;;18.46;52.87;102187.59;5057237;28;20167;-39
2021/11/12 13:57:30;;;;;;;938.75;877.15;;;;;;;18.40;52.79;102175.59;5057754;28;20020;-39
2021/11/12 14:00:16;;;;;;;981.28;916.05;;;;;;;18.43;53.03;102174.50;5057936;28;20058;-39
2021/11/12 14:03:07;;;;;;;942.97;881.03;;;;;;;18.42;52.93;102180.78;5057923;28;20033;-39
2021/11/12 14:05:38;;;;;;;941.08;879.40;;;;;;;18.39;53.20;102176.53;5057471;28;20053;-39
2021/11/12 14:08:09;;;;;;;948.38;886.45;;;;;;;18.40;52.94;102180.91;5057320;28;20052;-39
2021/11/12 14:10:40;;;;;;;925.55;864.95;;;;;;;18.42;53.13;102184.31;5057347;28;20120;-39
2021/11/12 14:13:08;;;;;;;903.83;845.60;;;;;;;18.45;53.27;102187.69;5057570;28;20025;-39
2021/11/12 14:15:43;;;;;;;945.58;883.63;;;;;;;18.46;53.11;102202.69;5057355;28;20055;-39
2021/11/12 14:21:09;;;;;;;952.90;890.40;;;;;;;18.39;53.20;102200.47;5057284;28;20025;-39
2021/11/12 14:24:15;;;;;;;951.38;888.65;;;;;;;18.43;53.18;102195.78;5056715;28;20035;-39
2021/11/12 14:26:49;;;;;;;941.38;880.33;;;;;;;18.40;53.15;102199.53;5057115;28;20033;-39
2021/11/12 14:32:33;;;;;;;936.97;876.47;;;;;;;18.38;53.10;102198.75;5057440;28;20036;-39
2021/11/12 14:38:03;;;;;;;931.45;870.83;;;;;;;18.38;53.35;102212.06;5057356;28;20017;-39
2021/11/12 14:44:24;;;;;;;892.60;835.97;;;;;;;18.45;53.53;102212.47;5055071;28;20040;-39
2021/11/12 14:46:42;;;;;;;901.45;843.70;;;;;;;18.41;53.14;102219.00;5056374;28;20079;-39
2021/11/12 14:52:09;;;;;;;942.50;880.95;;;;;;;18.34;53.45;102215.88;5043638;28;20482;-39
2021/11/12 14:54:52;;;;;;;937.33;876.13;;;;;;;18.34;53.73;102234.50;5072251;28;20401;-39
2021/11/12 14:57:35;;;;;;;950.75;888.60;;;;;;;18.34;53.38;102234.50;5056530;28;20033;-39
2021/11/12 15:00:10;;;;;;;957.38;893.90;;;;;;;18.33;53.39;102246.09;5056261;28;20033;-39
2021/11/12 15:02:36;;;;;;;957.95;894.90;;;;;;;18.36;53.50;102240.56;5056681;28;20112;-39
2021/11/12 15:05:06;;;;;;;965.88;902.20;;;;;;;18.33;53.37;102243.44;5055748;28;20374;-39
2021/11/12 15:07:44;;;;;;;949.40;886.67;;;;;;;18.36;53.35;102245.88;5055919;28;20058;-39
2021/11/12 15:10:17;;;;;;;946.22;885.40;;;;;;;18.40;53.49;102249.19;5056372;28;20025;-39
2021/11/12 15:12:49;;;;;;;924.28;864.05;;;;;;;18.39;53.62;102251.00;5056368;28;20082;-39
2021/11/12 15:15:16;;;;;;;937.35;876.17;;;;;;;18.38;53.48;102246.63;5036507;28;20022;-39
2021/11/12 15:17:42;;;;;;;951.70;889.00;;;;;;;18.33;53.65;102254.06;5036458;28;20041;-39
2021/11/12 15:20:09;;;;;;;951.03;887.83;;;;;;;18.30;53.61;102258.75;5036665;28;20113;-39
2021/11/12 15:22:54;;;;;;;967.30;903.10;;;;;;;18.30;53.68;102270.25;5036406;28;20044;-39
2021/11/12 15:25:28;;;;;;;966.78;903.38;;;;;;;18.31;53.68;102271.94;5055024;28;20035;-39
2021/11/12 15:28:01;;;;;;;951.47;887.97;;;;;;;18.29;53.62;102276.53;5056567;28;20039;-39
2021/11/12 15:30:32;;;;;;;928.47;867.65;;;;;;;18.30;53.37;102269.38;5056305;28;20408;-39
2021/11/12 15:33:03;;;;;;;943.85;882.90;;;;;;;18.31;53.61;102273.75;5056231;28;20105;-39
2021/11/12 15:35:31;;;;;;;915.47;855.92;;;;;;;18.31;53.61;102276.41;5056249;28;20099;-39
2021/11/12 15:40:46;;;;;;;904.30;847.00;;;;;;;18.37;53.38;102270.66;5036579;28;20179;-39
2021/11/12 15:48:15;;;;;;;;;;;;;;;18.49;53.07;102287.59;5054613;28;20134;-40
2021/11/12 15:56:14;;;;;;;920.97;861.40;;;;;;;18.31;53.73;102292.38;5055655;28;20044;-39
2021/11/12 16:04:11;;;;;;;900.22;842.22;;;;;;;18.33;53.62;102298.44;5055443;28;20025;-40